Time;durP1;ratioP1;P1;durP2;ratioP2;P2;SDS_P1;SDS_P2;PMS_P1;PMS_P2;Temp;Humidity;BMP_temperature;BMP_pressure;BME280_temperature;BME280_humidity;BME280_pressure;Samples;Min_cycle;Max_cycle;Signal;HPM_P1;HPM_P2
2023/04/03 00:01:49;;;;;;;;;;;;;;;0.89;100.00;96219.84;10514991;28;2092;-73
2023/04/03 00:06:52;;;;;;;;;;;;;;;0.80;100.00;96216.56;10517621;28;2348;-74
2023/04/03 00:11:55;;;;;;;;;;;;;;;0.96;100.00;96215.38;10513053;28;2334;-72
2023/04/03 00:16:57;;;;;;;;;;;;;;;0.87;100.00;96221.88;10508307;28;2040;-74
2023/04/03 00:22:00;;;;;;;;;;;;;;;0.92;100.00;96212.31;10512226;28;2291;-73
2023/04/03 00:27:03;;;;;;;;;;;;;;;0.90;100.00;96217.00;10514596;28;2315;-70
2023/04/03 00:32:05;;;;;;;;;;;;;;;0.73;100.00;96221.03;10499786;28;2487;-73
2023/04/03 00:37:08;;;;;;;;;;;;;;;0.69;100.00;96214.50;10509629;28;2356;-72
2023/04/03 00:42:10;;;;;;;;;;;;;;;0.86;100.00;96214.97;10518820;28;1979;-72
2023/04/03 00:47:13;;;;;;;;;;;;;;;0.91;100.00;96218.63;10520887;28;2087;-73
2023/04/03 00:52:16;;;;;;;;;;;;;;;1.10;100.00;96217.03;10522000;28;1960;-72
2023/04/03 00:57:19;;;;;;;;;;;;;;;0.94;100.00;96214.75;10521706;28;2290;-72
2023/04/03 01:02:22;;;;;;;;;;;;;;;0.94;100.00;96207.63;10521658;28;2317;-71
2023/04/03 01:07:24;;;;;;;;;;;;;;;0.93;100.00;96211.28;10517735;28;2385;-72
2023/04/03 01:12:28;;;;;;;;;;;;;;;0.74;100.00;96220.03;10522172;28;2000;-71
2023/04/03 01:17:30;;;;;;;;;;;;;;;0.81;100.00;96215.56;10511913;28;2353;-74
2023/04/03 01:22:32;;;;;;;;;;;;;;;0.76;100.00;96221.47;10521978;28;2315;-75
2023/04/03 01:27:36;;;;;;;;;;;;;;;0.68;100.00;96220.81;10523060;28;2005;-77
2023/04/03 01:32:38;;;;;;;;;;;;;;;0.75;100.00;96229.59;10519884;28;2337;-74
2023/04/03 01:37:40;;;;;;;;;;;;;;;0.77;100.00;96222.28;10527074;28;2011;-71
2023/04/03 01:42:43;;;;;;;;;;;;;;;0.83;100.00;96221.47;10515863;28;2365;-72
2023/04/03 01:47:46;;;;;;;;;;;;;;;0.81;100.00;96218.19;10521405;28;2258;-73
2023/04/03 01:52:49;;;;;;;;;;;;;;;0.80;100.00;96227.16;10524362;28;1928;-72
2023/04/03 01:57:54;;;;;;;;;;;;;;;0.97;100.00;96217.00;10527368;28;2265;-72
2023/04/03 02:02:57;;;;;;;;;;;;;;;0.95;100.00;96219.03;10516284;28;2122;-72
2023/04/03 02:08:00;;;;;;;;;;;;;;;0.95;100.00;96214.53;10512694;28;2394;-72
2023/04/03 02:13:04;;;;;;;;;;;;;;;1.08;100.00;96225.16;10513417;28;2021;-73
2023/04/03 02:18:16;;;;;;;;;;;;;;;1.20;100.00;96219.25;10522302;28;1974;-73
2023/04/03 02:23:19;;;;;;;;;;;;;;;1.27;100.00;96206.81;10513944;28;2133;-73
2023/04/03 02:28:22;;;;;;;;;;;;;;;1.24;100.00;96208.06;10510301;28;2139;-72
2023/04/03 02:33:25;;;;;;;;;;;;;;;1.22;100.00;96201.34;10538588;28;2056;-73
2023/04/03 02:38:27;;;;;;;;;;;;;;;1.26;100.00;96200.69;10515855;28;2076;-69
2023/04/03 02:43:29;;;;;;;;;;;;;;;1.19;100.00;96199.91;10516481;28;2347;-73
2023/04/03 02:48:32;;;;;;;;;;;;;;;1.18;100.00;96202.75;10516965;28;2349;-72
2023/04/03 02:53:34;;;;;;;;;;;;;;;1.12;100.00;96211.50;10514378;28;1927;-72
2023/04/03 02:58:37;;;;;;;;;;;;;;;1.04;100.00;96208.06;10514299;28;2369;-72
2023/04/03 03:03:39;;;;;;;;;;;;;;;1.21;100.00;96207.63;10510265;28;2333;-73
2023/04/03 03:08:42;;;;;;;;;;;;;;;1.04;100.00;96207.25;10511851;28;2392;-73
2023/04/03 03:13:45;;;;;;;;;;;;;;;1.07;100.00;96212.13;10507641;28;2299;-74
2023/04/03 03:18:47;;;;;;;;;;;;;;;0.98;100.00;96203.56;10513467;28;2306;-72
2023/04/03 03:23:50;;;;;;;;;;;;;;;1.03;100.00;96200.31;10511686;28;2056;-71
2023/04/03 03:28:52;;;;;;;;;;;;;;;0.98;100.00;96208.84;10512601;28;2352;-73
2023/04/03 03:33:55;;;;;;;;;;;;;;;1.09;100.00;96199.50;10520600;28;1936;-73
2023/04/03 03:38:58;;;;;;;;;;;;;;;1.23;100.00;96205.63;10516275;28;2462;-70
2023/04/03 03:44:00;;;;;;;;;;;;;;;1.09;100.00;96204.81;10508892;28;1972;-73
2023/04/03 03:49:03;;;;;;;;;;;;;;;1.01;100.00;96208.44;10513641;28;2053;-74
2023/04/03 03:54:06;;;;;;;;;;;;;;;0.98;100.00;96206.22;10519258;28;2326;-72
2023/04/03 03:59:09;;;;;;;;;;;;;;;1.05;100.00;96211.50;10519762;28;2111;-72
2023/04/03 04:04:12;;;;;;;;;;;;;;;1.04;100.00;96200.09;10519313;28;2342;-72
2023/04/03 04:09:15;;;;;;;;;;;;;;;1.00;100.00;96198.06;10526428;28;1981;-71
2023/04/03 04:14:26;;;;;;;;;;;;;;;0.92;100.00;96199.09;10525727;28;2072;-71
2023/04/03 04:19:28;;;;;;;;;;;;;;;0.95;100.00;96203.97;10525486;28;2037;-72
2023/04/03 04:24:31;;;;;;;;;;;;;;;0.87;100.00;96206.81;10527068;28;2319;-73
2023/04/03 04:29:35;;;;;;;;;;;;;;;1.04;100.00;96207.25;10519173;28;2319;-71
2023/04/03 04:34:38;;;;;;;;;;;;;;;0.94;100.00;96210.28;10527766;28;2322;-71
2023/04/03 04:39:40;;;;;;;;;;;;;;;0.94;100.00;96218.22;10520492;28;2369;-72
2023/04/03 04:44:43;;;;;;;;;;;;;;;1.07;100.00;96217.41;10522468;28;2073;-71
2023/04/03 04:49:47;;;;;;;;;;;;;;;1.04;100.00;96228.41;10516373;28;2370;-72
2023/04/03 04:54:49;;;;;;;;;;;;;;;1.12;100.00;96214.97;10528284;28;1950;-71
2023/04/03 04:59:52;;;;;;;;;;;;;;;1.14;100.00;96223.53;10521207;28;1981;-71
2023/04/03 05:04:54;;;;;;;;;;;;;;;1.19;100.00;96222.91;10511893;28;2707;-72
2023/04/03 05:10:00;;;;;;;;;;;;;;;1.11;100.00;96228.41;10521313;28;2211;-73
2023/04/03 05:15:03;;;;;;;;;;;;;;;1.08;100.00;96229.63;10520482;28;2132;-71
2023/04/03 05:20:05;;;;;;;;;;;;;;;1.09;100.00;96225.97;10517145;28;2079;-71
2023/04/03 05:25:08;;;;;;;;;;;;;;;1.15;100.00;96221.72;10513978;28;2279;-73
2023/04/03 05:30:11;;;;;;;;;;;;;;;1.24;100.00;96239.00;10501357;28;2059;-73
2023/04/03 05:35:23;;;;;;;;;;;;;;;1.16;100.00;96228.63;10515377;28;2342;-73
2023/04/03 05:40:30;;;;;;;;;;;;;;;1.27;100.00;96235.94;10524848;28;2256;-72
2023/04/03 05:45:34;;;;;;;;;;;;;;;1.27;100.00;96222.69;10526402;28;2357;-74
2023/04/03 05:50:41;;;;;;;;;;;;;;;1.38;100.00;96234.53;10517409;28;2090;-73
2023/04/03 05:55:53;;;;;;;;;;;;;;;1.37;100.00;96239.00;10518789;28;2334;-76
2023/04/03 06:00:56;;;;;;;;;;;;;;;1.34;100.00;96240.25;10518448;28;2277;-76
2023/04/03 06:06:00;;;;;;;;;;;;;;;1.45;100.00;96244.09;10520857;28;2090;-76
2023/04/03 06:11:11;;;;;;;;;;;;;;;1.57;100.00;96239.81;10521346;28;2052;-74
2023/04/03 06:16:15;;;;;;;;;;;;;;;1.69;100.00;96237.34;10517040;28;2295;-72
2023/04/03 06:21:19;;;;;;;;;;;;;;;1.65;100.00;96246.72;10513657;28;2437;-72
2023/04/03 06:26:27;;;;;;;;;;;;;;;1.70;100.00;96244.28;10514285;28;2044;-72
2023/04/03 06:31:29;;;;;;;;;;;;;;;1.81;100.00;96256.09;10517874;28;1956;-72
2023/04/03 06:36:32;;;;;;;;;;;;;;;1.83;100.00;96244.25;10514394;28;2148;-74
2023/04/03 06:41:36;;;;;;;;;;;;;;;1.94;100.00;96256.06;10510097;28;1962;-73
2023/04/03 06:46:40;;;;;;;;;;;;;;;1.99;100.00;96258.91;10514636;28;2036;-76
2023/04/03 06:51:42;;;;;;;;;;;;;;;2.22;100.00;96262.91;10521266;28;2258;-77
2023/04/03 06:56:46;;;;;;;;;;;;;;;2.46;100.00;96258.75;10513086;28;2513;-75
2023/04/03 07:01:48;;;;;;;;;;;;;;;2.52;100.00;96257.91;10513426;28;2226;-73
2023/04/03 07:06:52;;;;;;;;;;;;;;;2.41;100.00;96262.84;10510207;28;2369;-75
2023/04/03 07:11:55;;;;;;;;;;;;;;;2.58;100.00;96263.19;10509754;28;2677;-73
2023/04/03 07:16:58;;;;;;;;;;;;;;;2.95;100.00;96266.06;10514599;28;2304;-74
2023/04/03 07:22:00;;;;;;;;;;;;;;;2.74;100.00;96277.03;10503368;28;2154;-74
2023/04/03 07:27:03;;;;;;;;;;;;;;;2.50;100.00;96279.38;10515909;28;2345;-73
2023/04/03 07:32:06;;;;;;;;;;;;;;;2.62;100.00;96280.34;10507718;28;2694;-76
2023/04/03 07:37:10;;;;;;;;;;;;;;;2.41;100.00;96284.06;10509895;28;2215;-73
2023/04/03 07:42:13;;;;;;;;;;;;;;;2.64;100.00;96290.72;10509237;28;2089;-74
2023/04/03 07:47:17;;;;;;;;;;;;;;;2.90;100.00;96297.75;10505404;28;2614;-74
2023/04/03 07:52:19;;;;;;;;;;;;;;;2.96;100.00;96297.72;10518050;28;2581;-73
2023/04/03 07:57:22;;;;;;;;;;;;;;;2.90;100.00;96305.72;10508687;28;2551;-73
2023/04/03 08:02:25;;;;;;;;;;;;;;;2.67;100.00;96308.88;10513466;28;2335;-73
2023/04/03 08:07:28;;;;;;;;;;;;;;;2.63;100.00;96311.16;10517479;28;2293;-73
2023/04/03 08:12:31;;;;;;;;;;;;;;;2.43;100.00;96305.94;10507986;28;2692;-72
2023/04/03 08:17:34;;;;;;;;;;;;;;;2.54;100.00;96312.41;10507103;28;2213;-74
2023/04/03 08:22:38;;;;;;;;;;;;;;;2.77;100.00;96313.75;10506593;28;2113;-72
2023/04/03 08:27:40;;;;;;;;;;;;;;;3.20;100.00;96303.31;10506918;28;2188;-72
2023/04/03 08:32:44;;;;;;;;;;;;;;;3.25;100.00;96314.13;10512930;28;2289;-72
2023/04/03 08:37:47;;;;;;;;;;;;;;;2.93;100.00;96313.28;10513515;28;2127;-74
2023/04/03 08:42:50;;;;;;;;;;;;;;;2.84;100.00;96311.88;10491613;28;2648;-73
2023/04/03 08:47:53;;;;;;;;;;;;;;;3.03;100.00;96320.78;10516694;28;2408;-72
2023/04/03 08:52:58;;;;;;;;;;;;;;;3.21;100.00;96315.56;10515417;28;2534;-73
2023/04/03 08:58:02;;;;;;;;;;;;;;;3.25;100.00;96320.25;10520733;28;2162;-74
2023/04/03 09:03:04;;;;;;;;;;;;;;;3.15;100.00;96324.38;10519790;28;2221;-73
2023/04/03 09:08:07;;;;;;;;;;;;;;;3.79;100.00;96320.66;10515888;28;2302;-73
2023/04/03 09:13:09;;;;;;;;;;;;;;;3.82;100.00;96322.91;10517197;28;2204;-74
2023/04/03 09:18:12;;;;;;;;;;;;;;;3.51;100.00;96327.22;10516479;28;2180;-72
2023/04/03 09:23:14;;;;;;;;;;;;;;;4.02;100.00;96317.41;10521293;28;2304;-72
2023/04/03 09:28:17;;;;;;;;;;;;;;;4.20;100.00;96303.28;10514791;28;2604;-73
2023/04/03 09:33:20;;;;;;;;;;;;;;;4.33;100.00;96303.19;10512879;28;2297;-73
2023/04/03 09:38:22;;;;;;;;;;;;;;;4.08;100.00;96305.88;10517060;28;2188;-74
2023/04/03 09:43:26;;;;;;;;;;;;;;;3.84;100.00;96304.88;10515658;28;2590;-72
2023/04/03 09:48:29;;;;;;;;;;;;;;;3.79;100.00;96300.19;10515254;28;2613;-72
2023/04/03 09:53:33;;;;;;;;;;;;;;;3.86;100.00;96308.13;10507708;28;2196;-73
2023/04/03 09:58:36;;;;;;;;;;;;;;;3.74;100.00;96300.03;10513948;28;2574;-73
2023/04/03 10:03:51;;;;;;;;;;;;;;;3.28;100.00;96315.53;10516483;28;2558;-73
2023/04/03 10:08:55;;;;;;;;;;;;;;;3.29;100.00;96311.84;10508939;28;2150;-73
2023/04/03 10:13:59;;;;;;;;;;;;;;;3.13;100.00;96319.28;10498686;28;2120;-74
2023/04/03 10:19:02;;;;;;;;;;;;;;;3.45;100.00;96316.63;10518154;28;2115;-73
2023/04/03 10:24:05;;;;;;;;;;;;;;;3.92;100.00;96319.75;10513531;28;2305;-74
2023/04/03 10:29:09;;;;;;;;;;;;;;;3.88;100.00;96302.56;10510668;28;2717;-74
2023/04/03 10:34:12;;;;;;;;;;;;;;;3.61;100.00;96320.59;10512463;28;2101;-75
2023/04/03 10:39:16;;;;;;;;;;;;;;;3.25;100.00;96314.94;10513186;28;2282;-75
2023/04/03 10:44:19;;;;;;;;;;;;;;;2.92;100.00;96317.75;10515086;28;2309;-80
2023/04/03 10:49:22;;;;;;;;;;;;;;;2.66;100.00;96324.00;10523300;28;2574;-74
2023/04/03 10:54:26;;;;;;;;;;;;;;;2.77;100.00;96322.53;10515839;28;2177;-74
2023/04/03 10:59:28;;;;;;;;;;;;;;;2.85;100.00;96324.94;10517774;28;2125;-74
2023/04/03 11:04:32;;;;;;;;;;;;;;;2.65;100.00;96321.56;10517636;28;2334;-73
2023/04/03 11:09:37;;;;;;;;;;;;;;;2.79;100.00;96322.31;10510511;28;2285;-74
2023/04/03 11:14:40;;;;;;;;;;;;;;;2.56;100.00;96318.34;10516738;28;2158;-76
2023/04/03 11:19:43;;;;;;;;;;;;;;;2.69;100.00;96315.63;10510157;28;2173;-74
2023/04/03 11:24:46;;;;;;;;;;;;;;;2.75;100.00;96310.50;10508545;28;2216;-72
2023/04/03 11:29:49;;;;;;;;;;;;;;;2.87;100.00;96303.50;10500134;28;2599;-74
2023/04/03 11:34:53;;;;;;;;;;;;;;;3.13;100.00;96300.69;10513544;28;2180;-73
2023/04/03 11:39:56;;;;;;;;;;;;;;;3.83;100.00;96289.16;10509458;28;2160;-73
2023/04/03 11:44:59;;;;;;;;;;;;;;;4.08;100.00;96284.59;10516608;28;2312;-74
2023/04/03 11:50:02;;;;;;;;;;;;;;;4.59;100.00;96278.13;10512863;28;2708;-74
2023/04/03 11:55:05;;;;;;;;;;;;;;;4.71;100.00;96273.66;10509591;28;2365;-74
2023/04/03 12:00:09;;;;;;;;;;;;;;;4.57;95.25;96272.16;10503404;28;2566;-75
2023/04/03 12:05:21;;;;;;;;;;;;;;;4.99;90.54;96264.28;10511881;28;2197;-75
2023/04/03 12:10:25;;;;;;;;;;;;;;;5.26;89.25;96270.84;10518268;28;2605;-72
2023/04/03 12:15:34;;;;;;;;;;;;;;;5.20;87.40;96263.75;10510543;28;2324;-73
2023/04/03 12:20:38;;;;;;;;;;;;;;;5.37;85.43;96250.59;10515648;28;2593;-75
2023/04/03 12:25:43;;;;;;;;;;;;;;;4.97;82.78;96256.50;10513494;28;2511;-74
2023/04/03 12:30:47;;;;;;;;;;;;;;;4.82;84.83;96248.91;10524266;28;2649;-73
2023/04/03 12:35:50;;;;;;;;;;;;;;;4.90;84.24;96245.13;10520163;28;2360;-74
2023/04/03 12:40:54;;;;;;;;;;;;;;;5.70;78.95;96244.72;10515955;28;2591;-75
2023/04/03 12:45:57;;;;;;;;;;;;;;;5.37;70.09;96240.75;10521837;28;2145;-73
2023/04/03 12:50:59;;;;;;;;;;;;;;;5.25;69.92;96229.25;10514936;28;2570;-74
2023/04/03 12:56:05;;;;;;;;;;;;;;;5.29;69.70;96225.09;10518239;28;2611;-74
2023/04/03 13:01:18;;;;;;;;;;;;;;;5.32;72.48;96231.81;10519868;28;2125;-74
2023/04/03 13:06:22;;;;;;;;;;;;;;;5.19;71.90;96227.47;10518817;28;2352;-75
2023/04/03 13:11:25;;;;;;;;;;;;;;;5.89;70.03;96218.75;10525571;28;2246;-73
2023/04/03 13:16:28;;;;;;;;;;;;;;;5.72;68.40;96212.47;10519863;28;2613;-74
2023/04/03 13:21:31;;;;;;;;;;;;;;;5.66;72.01;96224.88;10519738;28;2547;-72
2023/04/03 13:26:33;;;;;;;;;;;;;;;5.41;64.79;96219.78;10522078;28;2137;-74
2023/04/03 13:31:38;;;;;;;;;;;;;;;5.03;67.82;96230.81;10514510;28;2566;-73
2023/04/03 13:36:41;;;;;;;;;;;;;;;4.85;72.50;96211.19;10515336;28;2631;-74
2023/04/03 13:41:43;;;;;;;;;;;;;;;4.88;74.31;96228.56;10514170;28;2700;-73
2023/04/03 13:46:46;;;;;;;;;;;;;;;5.04;73.70;96224.44;10522215;28;2357;-73
2023/04/03 13:51:48;;;;;;;;;;;;;;;5.17;72.86;96221.56;10527205;28;2629;-74
2023/04/03 13:57:06;;;;;;;;;;;;;;;5.11;68.93;96220.63;10524590;28;2640;-73
2023/04/03 14:02:10;;;;;;;;;;;;;;;5.40;66.46;96210.94;10501602;28;2157;-73
2023/04/03 14:07:12;;;;;;;;;;;;;;;5.25;66.83;96207.91;10513918;28;2293;-74
2023/04/03 14:12:14;;;;;;;;;;;;;;;5.81;65.47;96203.09;10516053;28;2637;-74
2023/04/03 14:17:42;;;;;;;;;;;;;;;5.56;65.30;96200.66;10513136;28;2613;-74
2023/04/03 14:22:53;;;;;;;;;;;;;;;5.31;64.94;96192.88;10513084;28;2311;-74
2023/04/03 14:27:56;;;;;;;;;;;;;;;4.93;64.58;96185.25;10523461;28;2106;-75
2023/04/03 14:32:58;;;;;;;;;;;;;;;4.97;62.85;96181.09;10514405;28;2257;-80
2023/04/03 14:38:01;;;;;;;;;;;;;;;5.09;63.28;96184.59;10525643;28;2281;-74
2023/04/03 14:43:03;;;;;;;;;;;;;;;4.95;62.99;96183.97;10525248;28;2308;-72
2023/04/03 14:48:06;;;;;;;;;;;;;;;5.13;63.57;96175.09;10513425;28;2665;-75
2023/04/03 14:53:08;;;;;;;;;;;;;;;4.90;60.43;96191.88;10521426;28;2728;-74
2023/04/03 14:58:12;;;;;;;;;;;;;;;4.54;59.74;96185.59;10521227;28;2334;-73
2023/04/03 15:03:16;;;;;;;;;;;;;;;4.49;59.59;96189.97;10520818;28;2661;-73
2023/04/03 15:08:19;;;;;;;;;;;;;;;4.24;57.63;96198.84;10511590;28;2353;-73
2023/04/03 15:13:22;;;;;;;;;;;;;;;4.20;57.05;96191.53;10518592;28;2167;-73
2023/04/03 15:18:25;;;;;;;;;;;;;;;4.18;55.94;96199.75;10508322;28;2559;-74
2023/04/03 15:23:31;;;;;;;;;;;;;;;4.01;54.73;96194.22;10508582;28;2547;-73
2023/04/03 15:28:33;;;;;;;;;;;;;;;4.02;54.47;96200.34;10517333;28;2693;-73
2023/04/03 15:33:36;;;;;;;;;;;;;;;3.96;54.81;96195.94;10516902;28;2184;-74
2023/04/03 15:38:39;;;;;;;;;;;;;;;3.99;53.56;96198.13;10499379;28;2607;-74
2023/04/03 15:43:41;;;;;;;;;;;;;;;3.99;51.72;96196.28;10509708;28;2152;-75
2023/04/03 15:48:44;;;;;;;;;;;;;;;4.08;51.60;96186.16;10508226;28;2630;-77
2023/04/03 15:53:48;;;;;;;;;;;;;;;4.11;51.84;96198.19;10519126;28;2097;-75
2023/04/03 15:58:50;;;;;;;;;;;;;;;4.01;53.51;96204.06;10518005;28;2155;-75
2023/04/03 16:03:53;;;;;;;;;;;;;;;3.96;56.08;96195.94;10522250;28;2305;-74
2023/04/03 16:08:57;;;;;;;;;;;;;;;3.95;57.06;96212.91;10519429;28;2690;-74
2023/04/03 16:14:00;;;;;;;;;;;;;;;3.87;56.61;96199.91;10520700;28;2168;-74
2023/04/03 16:19:02;;;;;;;;;;;;;;;3.75;56.98;96213.94;10516952;28;2623;-79
2023/04/03 16:24:05;;;;;;;;;;;;;;;3.55;57.57;96223.91;10519881;28;2638;-76
2023/04/03 16:29:08;;;;;;;;;;;;;;;3.41;57.28;96214.44;10516881;28;2635;-73
2023/04/03 16:34:21;;;;;;;;;;;;;;;3.41;58.13;96222.41;10522427;28;2313;-73
2023/04/03 16:39:24;;;;;;;;;;;;;;;3.27;57.27;96229.69;10534301;28;2186;-76
2023/04/03 16:44:28;;;;;;;;;;;;;;;3.21;56.35;96228.69;10524238;28;2565;-74
2023/04/03 16:49:33;;;;;;;;;;;;;;;3.16;56.02;96231.19;10520523;28;2176;-74
2023/04/03 16:54:36;;;;;;;;;;;;;;;3.16;57.70;96231.19;10522410;28;2622;-74
2023/04/03 16:59:38;;;;;;;;;;;;;;;3.18;58.80;96244.25;10517433;28;2394;-74
2023/04/03 17:04:52;;;;;;;;;;;;;;;3.04;59.74;96234.75;10519046;28;2337;-73
2023/04/03 17:09:54;;;;;;;;;;;;;;;3.03;61.87;96244.56;10512892;28;2335;-74
2023/04/03 17:15:07;;;;;;;;;;;;;;;3.08;61.51;96231.47;10521308;28;2644;-78
2023/04/03 17:20:10;;;;;;;;;;;;;;;3.08;64.02;96246.59;10513888;28;2559;-74
2023/04/03 17:25:14;;;;;;;;;;;;;;;3.10;65.06;96245.31;10513903;28;2899;-72
2023/04/03 17:30:18;;;;;;;;;;;;;;;3.07;68.51;96251.09;10518390;28;2649;-74
2023/04/03 17:35:30;;;;;;;;;;;;;;;2.83;72.39;96260.63;10507772;28;2333;-76
2023/04/03 17:40:33;;;;;;;;;;;;;;;2.72;78.16;96258.63;10513964;28;2517;-75
2023/04/03 17:45:36;;;;;;;;;;;;;;;2.61;73.33;96257.47;10523133;28;2467;-75
2023/04/03 17:50:39;;;;;;;;;;;;;;;2.50;74.99;96274.06;10502618;28;2181;-75
2023/04/03 17:55:42;;;;;;;;;;;;;;;2.43;73.17;96265.31;10521102;28;2389;-73
2023/04/03 18:00:45;;;;;;;;;;;;;;;2.41;74.55;96270.00;10513521;28;2630;-74
2023/04/03 18:05:49;;;;;;;;;;;;;;;2.38;77.29;96278.38;10517716;28;2352;-76
2023/04/03 18:10:52;;;;;;;;;;;;;;;2.34;80.51;96277.16;10518355;28;2563;-75
2023/04/03 18:15:55;;;;;;;;;;;;;;;2.26;80.98;96277.41;10520371;28;2615;-75
2023/04/03 18:20:57;;;;;;;;;;;;;;;2.25;83.80;96289.03;10513171;28;2653;-76
2023/04/03 18:26:01;;;;;;;;;;;;;;;2.19;83.70;96290.69;10517470;28;2622;-76
2023/04/03 18:31:04;;;;;;;;;;;;;;;2.19;85.49;96289.88;10512547;28;2376;-73
2023/04/03 18:36:06;;;;;;;;;;;;;;;2.16;87.34;96291.94;10516975;28;2188;-74
2023/04/03 18:41:09;;;;;;;;;;;;;;;2.10;88.54;96298.06;10519737;28;2671;-73
2023/04/03 18:46:12;;;;;;;;;;;;;;;1.97;89.30;96302.56;10525024;27;2159;-73
2023/04/03 18:51:15;;;;;;;;;;;;;;;1.94;90.27;96309.09;10518861;28;2752;-77
2023/04/03 18:56:17;;;;;;;;;;;;;;;1.87;89.41;96309.09;10519667;28;2362;-75
2023/04/03 19:01:20;;;;;;;;;;;;;;;1.77;89.10;96318.47;10509694;28;2987;-76
2023/04/03 19:06:23;;;;;;;;;;;;;;;1.68;90.80;96325.03;10514940;28;2117;-77
2023/04/03 19:11:26;;;;;;;;;;;;;;;1.58;93.06;96320.94;10506651;28;2610;-73
2023/04/03 19:16:32;;;;;;;;;;;;;;;1.48;96.54;96314.41;10511352;28;2302;-76
2023/04/03 19:21:39;;;;;;;;;;;;;;;1.37;100.00;96325.63;10519086;28;2366;-75
2023/04/03 19:26:42;;;;;;;;;;;;;;;1.25;99.75;96326.19;10516289;28;2654;-73
2023/04/03 19:31:45;;;;;;;;;;;;;;;1.09;100.00;96318.66;10518216;28;2633;-74
2023/04/03 19:36:48;;;;;;;;;;;;;;;0.97;100.00;96328.19;10500818;28;2399;-73
2023/04/03 19:41:50;;;;;;;;;;;;;;;0.91;100.00;96327.16;10512310;28;2190;-70
2023/04/03 19:46:54;;;;;;;;;;;;;;;0.75;100.00;96327.50;10517197;28;2546;-73
2023/04/03 19:51:57;;;;;;;;;;;;;;;0.62;100.00;96330.91;10515625;28;2125;-72
2023/04/03 19:57:00;;;;;;;;;;;;;;;0.53;100.00;96332.91;10498226;28;2582;-73
2023/04/03 20:02:02;;;;;;;;;;;;;;;0.42;100.00;96338.75;10516827;28;2188;-75
2023/04/03 20:07:05;;;;;;;;;;;;;;;0.30;100.00;96337.69;10511989;28;2576;-76
2023/04/03 20:12:09;;;;;;;;;;;;;;;0.19;100.00;96335.56;10517222;28;2134;-75
2023/04/03 20:17:12;;;;;;;;;;;;;;;0.13;100.00;96337.19;10517956;28;2578;-76
2023/04/03 20:22:15;;;;;;;;;;;;;;;0.04;100.00;96335.69;10514060;28;2323;-76
2023/04/03 20:27:18;;;;;;;;;;;;;;;0.04;100.00;96332.25;10514368;28;2675;-74
2023/04/03 20:32:21;;;;;;;;;;;;;;;-0.13;100.00;96332.53;10514998;28;2356;-74
2023/04/03 20:37:26;;;;;;;;;;;;;;;-0.16;100.00;96334.75;10512905;28;2666;-74
2023/04/03 20:42:30;;;;;;;;;;;;;;;-0.21;100.00;96332.69;10515995;28;2503;-76
2023/04/03 20:47:33;;;;;;;;;;;;;;;-0.35;100.00;96333.59;10527421;28;2618;-76
2023/04/03 20:52:46;;;;;;;;;;;;;;;-0.35;100.00;96339.69;10522346;28;2606;-76
2023/04/03 20:57:49;;;;;;;;;;;;;;;-0.43;100.00;96339.03;10524969;28;2597;-74
2023/04/03 21:03:06;;;;;;;;;;;;;;;-0.47;100.00;96335.13;10525551;28;2580;-75
2023/04/03 21:08:10;;;;;;;;;;;;;;;-0.53;100.00;96325.31;10525970;28;2277;-76
2023/04/03 21:13:16;;;;;;;;;;;;;;;-0.53;100.00;96330.59;10525837;28;2373;-74
2023/04/03 21:18:19;;;;;;;;;;;;;;;-0.43;100.00;96331.91;10518924;28;2191;-74
2023/04/03 21:23:23;;;;;;;;;;;;;;;-0.42;100.00;96327.44;10524277;28;2342;-74
2023/04/03 21:28:26;;;;;;;;;;;;;;;-0.47;100.00;96332.47;10524722;28;2176;-74
2023/04/03 21:33:28;;;;;;;;;;;;;;;-0.45;100.00;96328.63;10529141;28;2378;-73
2023/04/03 21:38:31;;;;;;;;;;;;;;;-0.41;100.00;96337.00;10522714;28;2614;-73
2023/04/03 21:43:34;;;;;;;;;;;;;;;-0.52;100.00;96338.31;10520786;28;2194;-74
2023/04/03 21:48:38;;;;;;;;;;;;;;;-0.59;100.00;96337.44;10521857;28;2179;-76
2023/04/03 21:53:44;;;;;;;;;;;;;;;-0.62;100.00;96330.75;10513215;28;2352;-75
2023/04/03 21:58:49;;;;;;;;;;;;;;;-0.66;100.00;96332.13;10522017;28;2703;-73
2023/04/03 22:03:52;;;;;;;;;;;;;;;-0.72;100.00;96332.88;10523311;28;2122;-75
2023/04/03 22:08:55;;;;;;;;;;;;;;;-0.79;100.00;96329.34;10522214;28;2177;-74
2023/04/03 22:13:58;;;;;;;;;;;;;;;-0.81;100.00;96323.47;10514714;28;2658;-76
2023/04/03 22:19:01;;;;;;;;;;;;;;;-0.82;100.00;96321.84;10517806;28;2339;-76
2023/04/03 22:24:04;;;;;;;;;;;;;;;-0.85;100.00;96319.56;10519301;28;2602;-79
2023/04/03 22:29:07;;;;;;;;;;;;;;;-0.96;100.00;96327.97;10525377;28;2662;-75
2023/04/03 22:34:10;;;;;;;;;;;;;;;-0.98;100.00;96322.06;10516004;28;2186;-74
2023/04/03 22:39:15;;;;;;;;;;;;;;;-1.03;100.00;96319.16;10523005;28;2475;-75
2023/04/03 22:44:17;;;;;;;;;;;;;;;-1.10;100.00;96321.75;10521476;28;2157;-75
2023/04/03 22:49:20;;;;;;;;;;;;;;;-1.16;100.00;96312.75;10519775;28;2601;-75
2023/04/03 22:54:23;;;;;;;;;;;;;;;-1.17;100.00;96318.22;10523056;28;2324;-73
2023/04/03 22:59:25;;;;;;;;;;;;;;;-1.15;100.00;96322.28;10519200;28;3011;-77
2023/04/03 23:04:28;;;;;;;;;;;;;;;-1.13;100.00;96324.75;10501950;28;2650;-77
2023/04/03 23:09:40;;;;;;;;;;;;;;;-1.15;100.00;96324.13;10496784;28;2357;-74
2023/04/03 23:14:43;;;;;;;;;;;;;;;-1.25;100.00;96319.16;10498317;28;2345;-75
2023/04/03 23:19:46;;;;;;;;;;;;;;;-1.35;100.00;96321.25;10516109;28;2181;-79
2023/04/03 23:24:49;;;;;;;;;;;;;;;-1.38;100.00;96316.38;10508073;28;2581;-73
2023/04/03 23:29:52;;;;;;;;;;;;;;;-1.48;100.00;96329.03;10516653;28;2634;-73
2023/04/03 23:34:55;;;;;;;;;;;;;;;-1.37;100.00;96316.19;10515992;28;2658;-73
2023/04/03 23:40:00;;;;;;;;;;;;;;;-1.26;100.00;96314.88;10517849;28;2618;-74
2023/04/03 23:45:04;;;;;;;;;;;;;;;-1.21;100.00;96311.66;10520604;28;2611;-74
2023/04/03 23:50:06;;;;;;;;;;;;;;;-1.13;100.00;96299.19;10518627;28;2125;-72
2023/04/03 23:55:09;;;;;;;;;;;;;;;-1.01;100.00;96302.16;10510222;28;2578;-74
